Time;durP1;ratioP1;P1;durP2;ratioP2;P2;SDS_P1;SDS_P2;PMS_P1;PMS_P2;Temp;Humidity;BMP_temperature;BMP_pressure;BME280_temperature;BME280_humidity;BME280_pressure;Samples;Min_cycle;Max_cycle;Signal;HPM_P1;HPM_P2
2022/08/02 00:00:13;;;;;;;15.48;5.13;;;;;;;;;;5129298;27;20043;-72
2022/08/02 00:02:39;;;;;;;11.10;4.10;;;;;;;;;;5116539;28;20054;-73
2022/08/02 00:05:05;;;;;;;12.57;4.75;;;;;;;;;;5098298;28;20074;-74
2022/08/02 00:07:32;;;;;;;13.07;4.93;;;;;;;;;;5121654;27;20115;-73
2022/08/02 00:09:58;;;;;;;14.35;5.43;;;;;;;;;;5080774;28;20047;-73
2022/08/02 00:12:24;;;;;;;12.50;5.32;;;;;;;;;;5119798;27;20031;-74
2022/08/02 00:14:50;;;;;;;11.98;5.75;;;;;;;;;;5123784;27;20406;-73
2022/08/02 00:17:16;;;;;;;10.70;5.70;;;;;;;;;;5119235;27;20047;-73
2022/08/02 00:19:42;;;;;;;13.13;6.68;;;;;;;;;;5124822;27;20042;-74
2022/08/02 00:22:08;;;;;;;15.23;6.68;;;;;;;;;;5127242;27;20043;-74
2022/08/02 00:24:34;;;;;;;15.90;6.80;;;;;;;;;;5116059;28;20443;-74
2022/08/02 00:27:02;;;;;;;13.68;6.60;;;;;;;;;;5115610;27;20093;-73
2022/08/02 00:29:29;;;;;;;14.82;6.40;;;;;;;;;;5097685;28;20051;-73
2022/08/02 00:31:55;;;;;;;11.80;6.03;;;;;;;;;;5119265;27;20863;-73
2022/08/02 00:34:21;;;;;;;9.55;5.38;;;;;;;;;;5132635;27;20392;-72
2022/08/02 00:36:47;;;;;;;13.30;5.90;;;;;;;;;;5132522;27;20043;-73
2022/08/02 00:39:13;;;;;;;15.77;5.95;;;;;;;;;;5131593;27;20477;-73
2022/08/02 00:41:47;;;;;;;12.57;5.55;;;;;;;;;;5097364;28;20083;-72
2022/08/02 00:44:13;;;;;;;11.70;5.60;;;;;;;;;;5115336;27;20500;-73
2022/08/02 00:46:39;;;;;;;14.68;5.97;;;;;;;;;;5118562;27;20481;-74
2022/08/02 00:49:05;;;;;;;12.48;5.30;;;;;;;;;;5102761;27;20468;-73
2022/08/02 00:51:31;;;;;;;13.48;5.57;;;;;;;;;;5133850;27;20047;-73
2022/08/02 00:53:57;;;;;;;15.80;5.50;;;;;;;;;;5132891;27;20058;-73
2022/08/02 00:56:23;;;;;;;13.45;5.50;;;;;;;;;;5121989;27;20392;-72
2022/08/02 00:58:49;;;;;;;11.45;5.75;;;;;;;;;;5115407;28;20039;-74
2022/08/02 01:01:15;;;;;;;14.20;5.63;;;;;;;;;;5123066;27;20510;-75
2022/08/02 01:03:41;;;;;;;10.70;5.40;;;;;;;;;;5117760;27;20204;-74
2022/08/02 01:06:07;;;;;;;9.95;5.10;;;;;;;;;;5115958;27;20474;-73
2022/08/02 01:08:33;;;;;;;13.10;5.22;;;;;;;;;;5134686;27;20463;-72
2022/08/02 01:10:59;;;;;;;13.90;5.75;;;;;;;;;;5133700;27;20127;-73
2022/08/02 01:13:25;;;;;;;15.65;6.07;;;;;;;;;;5135647;27;20035;-73
2022/08/02 01:16:00;;;;;;;11.07;5.75;;;;;;;;;;5125707;27;20075;-73
2022/08/02 01:18:31;;;;;;;11.63;6.03;;;;;;;;;;5128212;27;20035;-73
2022/08/02 01:21:06;;;;;;;10.50;5.50;;;;;;;;;;5128528;27;20050;-73
2022/08/02 01:23:56;;;;;;;15.45;6.15;;;;;;;;;;5135300;27;20493;-74
2022/08/02 01:26:31;;;;;;;13.52;6.45;;;;;;;;;;5133505;27;20092;-72
2022/08/02 01:29:09;;;;;;;16.20;6.40;;;;;;;;;;5113808;27;20047;-74
2022/08/02 01:31:40;;;;;;;11.48;6.32;;;;;;;;;;5114517;28;20405;-73
2022/08/02 01:34:12;;;;;;;10.32;6.05;;;;;;;;;;5114583;28;20079;-74
2022/08/02 01:36:41;;;;;;;15.60;6.57;;;;;;;;;;5119875;27;20077;-74
2022/08/02 01:39:09;;;;;;;12.48;6.20;;;;;;;;;;5133793;27;20039;-73
2022/08/02 01:41:35;;;;;;;13.25;6.30;;;;;;;;;;5128684;27;20035;-73
2022/08/02 01:44:02;;;;;;;14.30;6.32;;;;;;;;;;5119015;27;20044;-73
2022/08/02 01:46:29;;;;;;;14.75;6.53;;;;;;;;;;5095775;27;20067;-74
2022/08/02 01:48:56;;;;;;;12.18;6.10;;;;;;;;;;5126912;27;20092;-73
2022/08/02 01:52:20;;;;;;;11.27;6.10;;;;;;;;;;5114639;27;20047;-73
2022/08/02 01:54:11;;;;;;;13.18;5.97;;;;;;;;;;5112971;27;20047;-74
2022/08/02 01:56:37;;;;;;;11.90;5.78;;;;;;;;;;5131064;27;20397;-73
2022/08/02 01:59:05;;;;;;;11.13;5.93;;;;;;;;;;5133992;27;20043;-73
2022/08/02 02:01:32;;;;;;;14.73;6.25;;;;;;;;;;5127428;27;20051;-73
2022/08/02 02:03:59;;;;;;;15.00;5.97;;;;;;;;;;5128472;27;20039;-74
2022/08/02 02:06:25;;;;;;;12.10;5.93;;;;;;;;;;5132302;27;20035;-75
2022/08/02 02:08:51;;;;;;;11.75;5.68;;;;;;;;;;5122463;27;20508;-73
2022/08/02 02:11:17;;;;;;;8.70;5.53;;;;;;;;;;5094003;28;20040;-74
2022/08/02 02:13:44;;;;;;;11.68;6.03;;;;;;;;;;5126386;27;20047;-73
2022/08/02 02:16:11;;;;;;;11.63;6.35;;;;;;;;;;5130996;27;20047;-73
2022/08/02 02:18:40;;;;;;;11.85;5.80;;;;;;;;;;5122644;27;20040;-74
2022/08/02 02:21:06;;;;;;;13.25;6.60;;;;;;;;;;5127324;27;20054;-74
2022/08/02 02:23:32;;;;;;;14.13;6.20;;;;;;;;;;5131727;27;20046;-74
2022/08/02 02:25:59;;;;;;;13.00;6.60;;;;;;;;;;5131947;27;20039;-74
2022/08/02 02:28:31;;;;;;;12.23;6.20;;;;;;;;;;5134232;27;20046;-73
2022/08/02 02:31:07;;;;;;;12.43;6.35;;;;;;;;;;5134187;27;20043;-74
2022/08/02 02:33:36;;;;;;;14.13;6.43;;;;;;;;;;5133090;27;20043;-74
2022/08/02 02:36:02;;;;;;;10.95;6.07;;;;;;;;;;5131537;27;20038;-74
2022/08/02 02:38:30;;;;;;;13.07;6.60;;;;;;;;;;5132922;27;20043;-73
2022/08/02 02:40:57;;;;;;;13.27;6.40;;;;;;;;;;5132683;27;20043;-74
2022/08/02 02:43:24;;;;;;;14.43;6.72;;;;;;;;;;5118865;27;20054;-74
2022/08/02 02:45:51;;;;;;;13.75;6.25;;;;;;;;;;5112351;28;20043;-74
2022/08/02 02:48:17;;;;;;;20.15;6.90;;;;;;;;;;5112280;28;20422;-74
2022/08/02 02:50:43;;;;;;;16.00;7.10;;;;;;;;;;5119146;27;20070;-73
2022/08/02 02:53:11;;;;;;;14.30;7.45;;;;;;;;;;5078069;28;20728;-74
2022/08/02 02:55:37;;;;;;;14.38;7.18;;;;;;;;;;5118050;28;20055;-73
2022/08/02 02:58:03;;;;;;;17.25;8.10;;;;;;;;;;5130098;28;20134;-74
2022/08/02 03:03:14;;;;;;;14.02;6.68;;;;;;;;;;5118130;28;20047;-74
2022/08/02 03:05:40;;;;;;;14.20;6.55;;;;;;;;;;5112108;28;20466;-74
2022/08/02 03:08:06;;;;;;;14.15;6.88;;;;;;;;;;5115714;28;20039;-74
2022/08/02 03:10:33;;;;;;;18.98;6.72;;;;;;;;;;5114880;28;20043;-73
2022/08/02 03:12:59;;;;;;;12.93;6.63;;;;;;;;;;5120440;28;20035;-73
2022/08/02 03:15:26;;;;;;;14.45;6.93;;;;;;;;;;5127723;28;20036;-73
2022/08/02 03:17:52;;;;;;;17.13;7.28;;;;;;;;;;5131746;28;20042;-73
2022/08/02 03:20:19;;;;;;;13.77;7.20;;;;;;;;;;5133486;28;20039;-73
2022/08/02 03:22:46;;;;;;;13.82;7.47;;;;;;;;;;5132637;28;20449;-73
2022/08/02 03:25:12;;;;;;;16.33;7.30;;;;;;;;;;5126713;28;20084;-73
2022/08/02 03:27:39;;;;;;;12.60;7.00;;;;;;;;;;5128360;28;20099;-74
2022/08/02 03:30:06;;;;;;;16.65;7.30;;;;;;;;;;5107962;28;20096;-74
2022/08/02 03:32:33;;;;;;;16.08;7.30;;;;;;;;;;5132487;27;20688;-73
2022/08/02 03:34:59;;;;;;;12.38;6.75;;;;;;;;;;5136204;27;20047;-74
2022/08/02 03:37:26;;;;;;;12.02;6.72;;;;;;;;;;5132577;27;20039;-74
2022/08/02 03:39:53;;;;;;;15.65;7.68;;;;;;;;;;5137610;27;20100;-75
2022/08/02 03:42:20;;;;;;;12.05;6.40;;;;;;;;;;5136372;27;20070;-73
2022/08/02 03:44:47;;;;;;;18.45;7.53;;;;;;;;;;5136573;27;20400;-74
2022/08/02 03:47:13;;;;;;;15.48;7.47;;;;;;;;;;5125370;27;20040;-73
2022/08/02 03:49:40;;;;;;;11.80;7.05;;;;;;;;;;5105721;27;20508;-74
2022/08/02 03:52:06;;;;;;;16.52;7.70;;;;;;;;;;5107624;27;20059;-74
2022/08/02 03:54:32;;;;;;;15.18;7.30;;;;;;;;;;5133500;27;20119;-73
2022/08/02 03:56:58;;;;;;;15.52;7.13;;;;;;;;;;5131128;27;20051;-74
2022/08/02 03:59:24;;;;;;;13.60;7.15;;;;;;;;;;5137141;27;20047;-74
2022/08/02 04:01:50;;;;;;;16.48;7.28;;;;;;;;;;5126477;27;20055;-75
2022/08/02 04:04:16;;;;;;;11.70;6.85;;;;;;;;;;5125052;27;20043;-73
2022/08/02 04:06:42;;;;;;;12.95;6.95;;;;;;;;;;5133722;27;20126;-72
2022/08/02 04:09:08;;;;;;;12.13;6.78;;;;;;;;;;5117945;27;20046;-73
2022/08/02 04:11:34;;;;;;;14.77;7.00;;;;;;;;;;5136105;27;20043;-73
2022/08/02 04:14:10;;;;;;;12.32;7.00;;;;;;;;;;5136717;27;20511;-74
2022/08/02 04:16:39;;;;;;;13.18;7.03;;;;;;;;;;5102895;27;20129;-74
2022/08/02 04:19:07;;;;;;;15.52;7.40;;;;;;;;;;5116875;27;20039;-74
2022/08/02 04:21:35;;;;;;;13.45;6.88;;;;;;;;;;5097791;28;20104;-75
2022/08/02 04:24:03;;;;;;;13.27;7.00;;;;;;;;;;5115924;27;20039;-73
2022/08/02 04:26:30;;;;;;;14.02;7.03;;;;;;;;;;5108880;27;20042;-73
2022/08/02 04:28:57;;;;;;;14.73;7.30;;;;;;;;;;5116100;28;20087;-74
2022/08/02 04:31:23;;;;;;;17.40;7.00;;;;;;;;;;5097238;28;20059;-73
2022/08/02 04:33:49;;;;;;;13.82;6.78;;;;;;;;;;5115528;28;20500;-74
2022/08/02 04:36:15;;;;;;;13.73;6.95;;;;;;;;;;5131469;27;20500;-73
2022/08/02 04:38:41;;;;;;;15.50;7.22;;;;;;;;;;5120587;27;20036;-74
2022/08/02 04:41:07;;;;;;;12.23;6.93;;;;;;;;;;5118661;27;20039;-74
2022/08/02 04:43:34;;;;;;;14.23;7.35;;;;;;;;;;5120951;27;20035;-73
2022/08/02 04:46:01;;;;;;;16.10;6.85;;;;;;;;;;5117283;27;20476;-73
2022/08/02 04:48:27;;;;;;;13.38;6.57;;;;;;;;;;5089870;27;20044;-74
2022/08/02 04:50:54;;;;;;;14.95;7.05;;;;;;;;;;5135099;27;20080;-74
2022/08/02 04:53:20;;;;;;;15.93;7.65;;;;;;;;;;5107094;28;20131;-74
2022/08/02 04:55:46;;;;;;;15.63;7.00;;;;;;;;;;5104098;28;20045;-74
2022/08/02 04:58:12;;;;;;;15.43;7.05;;;;;;;;;;5110412;28;20070;-74
2022/08/02 05:00:41;;;;;;;14.05;6.60;;;;;;;;;;5112014;28;20044;-73
2022/08/02 05:03:07;;;;;;;14.27;6.95;;;;;;;;;;5094879;28;20036;-74
2022/08/02 05:05:33;;;;;;;15.77;7.63;;;;;;;;;;5094876;28;20135;-74
2022/08/02 05:07:59;;;;;;;12.30;7.10;;;;;;;;;;5081488;28;20118;-73
2022/08/02 05:10:25;;;;;;;15.43;7.43;;;;;;;;;;5094090;28;20059;-74
2022/08/02 05:12:51;;;;;;;17.85;7.22;;;;;;;;;;5108817;28;20047;-73
2022/08/02 05:15:18;;;;;;;15.57;6.97;;;;;;;;;;5096090;28;20067;-75
2022/08/02 05:17:45;;;;;;;18.10;8.15;;;;;;;;;;5111382;28;20051;-74
2022/08/02 05:20:12;;;;;;;14.75;8.05;;;;;;;;;;5097517;28;20493;-75
2022/08/02 05:22:38;;;;;;;17.35;7.90;;;;;;;;;;5102540;28;20122;-73
2022/08/02 05:25:05;;;;;;;14.75;7.93;;;;;;;;;;5107408;28;20046;-74
2022/08/02 05:27:32;;;;;;;19.08;8.55;;;;;;;;;;5096138;28;20051;-75
2022/08/02 05:29:58;;;;;;;15.13;8.05;;;;;;;;;;5107385;28;20460;-73
2022/08/02 05:32:24;;;;;;;15.30;8.10;;;;;;;;;;5113285;28;20375;-74
2022/08/02 05:34:50;;;;;;;17.27;8.05;;;;;;;;;;5114753;28;20043;-73
2022/08/02 05:37:16;;;;;;;14.70;8.15;;;;;;;;;;5098159;28;20051;-74
2022/08/02 05:39:43;;;;;;;15.88;8.48;;;;;;;;;;5094118;28;20048;-73
2022/08/02 05:42:09;;;;;;;17.65;6.93;;;;;;;;;;5093960;28;20465;-74
2022/08/02 05:44:36;;;;;;;15.23;6.75;;;;;;;;;;5092706;28;20044;-75
2022/08/02 05:47:02;;;;;;;11.52;6.22;;;;;;;;;;5094192;28;20054;-74
2022/08/02 05:49:28;;;;;;;11.40;5.70;;;;;;;;;;5099002;28;20051;-74
2022/08/02 05:52:03;;;;;;;13.68;6.13;;;;;;;;;;5098117;28;20065;-74
2022/08/02 05:54:43;;;;;;;14.70;5.40;;;;;;;;;;5123320;27;20396;-74
2022/08/02 05:57:28;;;;;;;11.25;5.55;;;;;;;;;;5079372;28;20039;-71
2022/08/02 06:00:08;;;;;;;10.27;4.63;;;;;;;;;;5127408;27;20053;-71
2022/08/02 06:02:52;;;;;;;11.98;4.28;;;;;;;;;;5134706;27;20111;-72
2022/08/02 06:05:21;;;;;;;14.55;4.90;;;;;;;;;;5118990;27;20035;-74
2022/08/02 06:07:48;;;;;;;12.77;4.88;;;;;;;;;;5123364;27;20039;-71
2022/08/02 06:10:15;;;;;;;11.18;4.63;;;;;;;;;;5134328;27;20047;-72
2022/08/02 06:12:46;;;;;;;11.13;4.53;;;;;;;;;;5134386;27;20043;-72
2022/08/02 06:15:14;;;;;;;10.50;4.15;;;;;;;;;;5131433;27;20497;-72
2022/08/02 06:17:40;;;;;;;12.43;4.32;;;;;;;;;;5132821;27;20038;-71
2022/08/02 06:20:07;;;;;;;11.68;4.10;;;;;;;;;;5110720;27;20043;-72
2022/08/02 06:22:34;;;;;;;12.10;3.90;;;;;;;;;;5134616;27;20492;-71
2022/08/02 06:25:01;;;;;;;10.70;4.15;;;;;;;;;;5102206;28;20035;-73
2022/08/02 06:27:27;;;;;;;9.88;4.28;;;;;;;;;;5120256;27;20519;-72
2022/08/02 06:29:54;;;;;;;8.65;4.03;;;;;;;;;;5123157;27;20538;-71
2022/08/02 06:32:20;;;;;;;14.40;4.53;;;;;;;;;;5122275;27;20047;-72
2022/08/02 06:34:46;;;;;;;10.60;3.90;;;;;;;;;;5130704;27;20462;-72
2022/08/02 06:37:21;;;;;;;13.43;3.78;;;;;;;;;;5132517;27;20043;-72
2022/08/02 06:39:48;;;;;;;11.40;3.67;;;;;;;;;;5133073;27;20088;-73
2022/08/02 06:42:17;;;;;;;10.07;3.80;;;;;;;;;;5134134;27;20047;-72
2022/08/02 06:44:43;;;;;;;11.73;3.63;;;;;;;;;;5131857;27;20046;-72
2022/08/02 06:47:09;;;;;;;9.45;3.22;;;;;;;;;;5115899;27;20043;-74
2022/08/02 06:49:35;;;;;;;10.10;3.83;;;;;;;;;;5133615;27;20420;-71
2022/08/02 06:52:02;;;;;;;9.98;3.88;;;;;;;;;;5114987;27;20058;-73
2022/08/02 06:54:28;;;;;;;13.57;3.67;;;;;;;;;;5133816;27;20051;-72
2022/08/02 06:56:54;;;;;;;11.15;4.00;;;;;;;;;;5131434;28;20512;-72
2022/08/02 06:59:20;;;;;;;10.77;3.47;;;;;;;;;;5114429;28;20126;-72
2022/08/02 07:01:46;;;;;;;9.75;3.30;;;;;;;;;;5132817;28;20097;-73
2022/08/02 07:04:12;;;;;;;10.05;3.03;;;;;;;;;;5133487;28;20509;-72
2022/08/02 07:06:38;;;;;;;10.60;3.17;;;;;;;;;;5133861;28;20049;-73
2022/08/02 07:09:04;;;;;;;9.98;3.38;;;;;;;;;;5132422;27;20125;-73
2022/08/02 07:11:30;;;;;;;8.05;3.03;;;;;;;;;;5137547;27;20145;-72
2022/08/02 07:13:56;;;;;;;9.13;3.40;;;;;;;;;;5132419;27;20036;-73
2022/08/02 07:16:22;;;;;;;9.55;2.83;;;;;;;;;;5127214;27;20040;-72
2022/08/02 07:18:48;;;;;;;11.23;3.20;;;;;;;;;;5105038;27;20043;-71
2022/08/02 07:21:14;;;;;;;8.27;2.60;;;;;;;;;;5125518;27;20031;-71
2022/08/02 07:23:40;;;;;;;8.18;2.47;;;;;;;;;;5130585;27;20042;-72
2022/08/02 07:26:06;;;;;;;9.30;2.65;;;;;;;;;;5117406;28;20427;-72
2022/08/02 07:28:32;;;;;;;7.40;2.47;;;;;;;;;;5128406;27;20047;-72
2022/08/02 07:30:58;;;;;;;7.45;2.30;;;;;;;;;;5133318;27;20753;-73
2022/08/02 07:33:26;;;;;;;10.15;2.63;;;;;;;;;;5131531;27;20043;-74
2022/08/02 07:35:53;;;;;;;9.93;2.75;;;;;;;;;;5115440;27;20054;-71
2022/08/02 07:38:21;;;;;;;6.80;2.20;;;;;;;;;;5128587;27;20074;-72
2022/08/02 07:40:47;;;;;;;8.43;2.25;;;;;;;;;;5104845;27;20169;-71
2022/08/02 07:43:14;;;;;;;10.95;2.38;;;;;;;;;;5129512;27;20080;-71
2022/08/02 07:45:40;;;;;;;9.38;2.42;;;;;;;;;;5083096;28;20119;-72
2022/08/02 07:48:07;;;;;;;5.68;1.95;;;;;;;;;;5131943;27;20036;-73
2022/08/02 07:50:33;;;;;;;10.50;2.25;;;;;;;;;;5134092;27;20208;-71
2022/08/02 07:52:59;;;;;;;7.38;2.00;;;;;;;;;;5129466;27;20055;-73
2022/08/02 07:55:26;;;;;;;10.27;2.13;;;;;;;;;;5119428;27;20043;-72
2022/08/02 07:57:52;;;;;;;6.65;2.00;;;;;;;;;;5117008;27;20104;-72
2022/08/02 08:00:18;;;;;;;7.72;1.80;;;;;;;;;;5116512;28;20039;-71
2022/08/02 08:02:45;;;;;;;5.75;1.80;;;;;;;;;;5116606;28;20051;-71
2022/08/02 08:05:11;;;;;;;8.23;1.65;;;;;;;;;;5116459;28;20039;-72
2022/08/02 08:07:37;;;;;;;6.53;1.70;;;;;;;;;;5116336;28;20043;-72
2022/08/02 08:10:04;;;;;;;8.00;1.88;;;;;;;;;;5131690;27;20408;-72
2022/08/02 08:12:30;;;;;;;7.57;1.55;;;;;;;;;;5101909;27;20048;-72
2022/08/02 08:14:56;;;;;;;5.95;1.60;;;;;;;;;;5120492;27;20176;-72
2022/08/02 08:17:22;;;;;;;5.55;1.30;;;;;;;;;;5100564;27;20072;-72
2022/08/02 08:19:49;;;;;;;5.22;1.30;;;;;;;;;;5119912;27;20056;-73
2022/08/02 08:22:15;;;;;;;7.07;1.20;;;;;;;;;;5130064;27;20074;-71
2022/08/02 08:24:41;;;;;;;5.05;1.38;;;;;;;;;;5123681;27;20067;-72
2022/08/02 08:27:09;;;;;;;5.00;1.20;;;;;;;;;;5127582;27;20057;-72
2022/08/02 08:29:35;;;;;;;6.22;1.58;;;;;;;;;;5117230;27;20416;-74
2022/08/02 08:32:01;;;;;;;6.60;1.00;;;;;;;;;;5117648;27;20118;-73
2022/08/02 08:34:30;;;;;;;4.13;1.27;;;;;;;;;;5119653;27;20134;-72
2022/08/02 08:36:56;;;;;;;4.47;1.13;;;;;;;;;;5133376;27;20047;-72
2022/08/02 08:39:22;;;;;;;5.18;1.10;;;;;;;;;;5129437;27;20119;-72
2022/08/02 08:41:48;;;;;;;4.60;1.00;;;;;;;;;;5116377;27;20126;-71
2022/08/02 08:44:14;;;;;;;5.93;1.30;;;;;;;;;;5117087;27;20119;-72
2022/08/02 08:46:44;;;;;;;6.07;1.42;;;;;;;;;;5082633;28;20433;-72
2022/08/02 08:49:14;;;;;;;5.95;1.40;;;;;;;;;;5122075;27;20425;-74
2022/08/02 08:51:42;;;;;;;5.20;1.25;;;;;;;;;;5114514;27;20078;-71
2022/08/02 08:54:09;;;;;;;7.43;1.50;;;;;;;;;;5125686;27;20066;-72
2022/08/02 08:56:36;;;;;;;4.70;1.40;;;;;;;;;;5131017;27;20133;-72
2022/08/02 08:59:03;;;;;;;4.90;1.35;;;;;;;;;;5123296;27;20107;-72
2022/08/02 09:01:29;;;;;;;5.47;1.30;;;;;;;;;;5097327;28;20493;-72
2022/08/02 09:03:56;;;;;;;5.07;1.25;;;;;;;;;;5123059;27;20039;-72
2022/08/02 09:06:22;;;;;;;5.38;1.30;;;;;;;;;;5122659;27;20050;-71
2022/08/02 09:08:48;;;;;;;5.18;1.15;;;;;;;;;;5118302;27;20043;-73
2022/08/02 09:11:16;;;;;;;6.95;1.50;;;;;;;;;;5097227;28;20550;-71
2022/08/02 09:13:53;;;;;;;6.30;1.30;;;;;;;;;;5103859;28;20524;-72
2022/08/02 09:16:29;;;;;;;6.88;1.52;;;;;;;;;;5128345;27;20096;-72
2022/08/02 09:18:55;;;;;;;7.55;1.40;;;;;;;;;;5131970;27;20054;-73
2022/08/02 09:21:21;;;;;;;5.65;1.40;;;;;;;;;;5127129;27;20071;-72
2022/08/02 09:23:48;;;;;;;5.72;1.48;;;;;;;;;;5127188;27;20120;-72
2022/08/02 09:26:16;;;;;;;6.18;1.50;;;;;;;;;;5114422;28;20485;-72
2022/08/02 09:28:43;;;;;;;6.43;1.50;;;;;;;;;;5128604;27;20096;-72
2022/08/02 09:31:10;;;;;;;7.22;1.30;;;;;;;;;;5128766;27;20560;-71
2022/08/02 09:33:37;;;;;;;7.70;1.88;;;;;;;;;;5132799;27;20070;-71
2022/08/02 09:36:03;;;;;;;3.67;1.10;;;;;;;;;;5119355;27;20035;-71
2022/08/02 09:38:29;;;;;;;5.22;1.23;;;;;;;;;;5130370;27;20045;-74
2022/08/02 09:40:55;;;;;;;6.60;1.55;;;;;;;;;;5117962;27;20131;-74
2022/08/02 09:43:22;;;;;;;5.28;1.45;;;;;;;;;;5131190;27;20040;-74
2022/08/02 09:45:48;;;;;;;6.18;1.63;;;;;;;;;;5122987;27;20043;-75
2022/08/02 09:48:14;;;;;;;5.53;1.50;;;;;;;;;;5115947;27;20047;-74
2022/08/02 09:50:41;;;;;;;4.93;1.77;;;;;;;;;;5113631;28;20039;-75
2022/08/02 09:53:14;;;;;;;8.68;1.52;;;;;;;;;;5114379;28;20055;-75
2022/08/02 09:55:41;;;;;;;7.07;1.73;;;;;;;;;;5095700;28;20054;-73
2022/08/02 09:58:17;;;;;;;4.72;1.40;;;;;;;;;;5115993;27;20075;-75
2022/08/02 10:00:53;;;;;;;5.80;1.58;;;;;;;;;;5113804;28;20397;-74
2022/08/02 10:03:19;;;;;;;5.95;1.55;;;;;;;;;;5116365;27;20039;-74
2022/08/02 10:05:57;;;;;;;8.13;1.77;;;;;;;;;;5120169;27;20046;-75
2022/08/02 10:08:23;;;;;;;6.90;1.70;;;;;;;;;;5116083;27;20603;-75
2022/08/02 10:10:59;;;;;;;6.35;1.98;;;;;;;;;;5125864;27;20123;-74
2022/08/02 10:13:26;;;;;;;6.63;1.90;;;;;;;;;;5111177;28;20040;-75
2022/08/02 10:15:52;;;;;;;5.53;1.70;;;;;;;;;;5113433;28;20176;-75
2022/08/02 10:18:18;;;;;;;7.78;1.67;;;;;;;;;;5116421;27;20122;-75
2022/08/02 10:20:44;;;;;;;7.80;1.70;;;;;;;;;;5132446;27;20459;-74
2022/08/02 10:23:12;;;;;;;6.22;1.50;;;;;;;;;;5120786;27;20044;-74
2022/08/02 10:25:39;;;;;;;5.25;1.50;;;;;;;;;;5095147;28;20036;-75
2022/08/02 10:28:08;;;;;;;6.85;1.58;;;;;;;;;;5113814;27;20048;-75
2022/08/02 10:30:36;;;;;;;6.35;1.75;;;;;;;;;;5122049;27;20093;-75
2022/08/02 10:33:03;;;;;;;5.05;1.67;;;;;;;;;;5095362;28;20055;-76
2022/08/02 10:35:32;;;;;;;6.40;2.40;;;;;;;;;;5114888;27;20092;-74
2022/08/02 10:38:05;;;;;;;6.60;1.70;;;;;;;;;;5113334;28;20085;-74
2022/08/02 10:40:44;;;;;;;4.95;1.63;;;;;;;;;;5121060;27;20080;-77
2022/08/02 10:43:10;;;;;;;4.55;1.80;;;;;;;;;;5134574;27;20096;-76
2022/08/02 10:45:36;;;;;;;6.85;1.83;;;;;;;;;;5134166;27;20489;-75
2022/08/02 10:48:03;;;;;;;6.25;2.03;;;;;;;;;;5125440;27;20086;-75
2022/08/02 10:50:47;;;;;;;8.35;2.15;;;;;;;;;;5095483;28;20214;-75
2022/08/02 10:53:19;;;;;;;7.07;2.38;;;;;;;;;;5113589;28;20108;-76
2022/08/02 10:55:47;;;;;;;7.05;2.30;;;;;;;;;;5092014;28;20399;-75
2022/08/02 10:58:18;;;;;;;7.35;2.38;;;;;;;;;;5101412;28;20060;-74
2022/08/02 11:00:44;;;;;;;6.38;2.30;;;;;;;;;;5093538;28;20095;-75
2022/08/02 11:03:28;;;;;;;5.28;2.20;;;;;;;;;;5102528;28;20063;-75
2022/08/02 11:06:07;;;;;;;5.15;2.45;;;;;;;;;;5113240;28;20044;-76
2022/08/02 11:08:33;;;;;;;7.53;2.60;;;;;;;;;;5103637;28;20039;-74
2022/08/02 11:11:20;;;;;;;9.00;2.78;;;;;;;;;;5101282;28;20124;-74
2022/08/02 11:14:08;;;;;;;6.38;2.53;;;;;;;;;;5103295;28;20076;-75
2022/08/02 11:16:53;;;;;;;6.20;2.63;;;;;;;;;;5093889;28;20058;-75
2022/08/02 11:19:19;;;;;;;7.25;2.60;;;;;;;;;;5112031;28;20036;-75
2022/08/02 11:21:59;;;;;;;6.13;2.75;;;;;;;;;;5113852;28;20047;-75
2022/08/02 11:24:27;;;;;;;6.68;2.90;;;;;;;;;;5113470;28;20052;-75
2022/08/02 11:26:53;;;;;;;9.63;3.28;;;;;;;;;;5113168;28;20052;-76
2022/08/02 11:29:19;;;;;;;8.82;2.88;;;;;;;;;;5111360;28;20481;-76
2022/08/02 11:31:46;;;;;;;8.35;2.55;;;;;;;;;;5095509;28;20067;-76
2022/08/02 11:34:12;;;;;;;8.85;3.00;;;;;;;;;;5090843;28;20055;-73
2022/08/02 11:36:46;;;;;;;7.85;2.33;;;;;;;;;;5094317;28;20039;-75
2022/08/02 11:39:12;;;;;;;5.47;2.47;;;;;;;;;;5100352;28;20497;-76
2022/08/02 11:41:39;;;;;;;7.75;3.17;;;;;;;;;;5103815;28;20044;-74
2022/08/02 11:44:05;;;;;;;8.27;2.60;;;;;;;;;;5085232;28;20076;-73
2022/08/02 11:46:31;;;;;;;7.43;3.20;;;;;;;;;;5106073;28;20382;-74
2022/08/02 11:48:57;;;;;;;8.13;2.85;;;;;;;;;;5111319;28;20035;-76
2022/08/02 11:51:23;;;;;;;10.02;3.28;;;;;;;;;;5076306;28;20044;-75
2022/08/02 11:53:49;;;;;;;8.73;3.50;;;;;;;;;;5091634;28;20056;-73
2022/08/02 11:56:16;;;;;;;7.47;2.97;;;;;;;;;;5112981;28;20051;-74
2022/08/02 11:58:59;;;;;;;7.32;2.60;;;;;;;;;;5100199;28;20044;-75
2022/08/02 12:01:25;;;;;;;6.40;2.60;;;;;;;;;;5098066;28;20047;-74
2022/08/02 12:03:51;;;;;;;5.40;2.08;;;;;;;;;;5111339;28;20401;-74
2022/08/02 12:06:18;;;;;;;7.75;2.13;;;;;;;;;;5110047;28;20374;-73
2022/08/02 12:08:44;;;;;;;9.63;1.95;;;;;;;;;;5096895;28;20142;-74
2022/08/02 12:11:10;;;;;;;5.18;1.75;;;;;;;;;;5078836;28;20128;-75
2022/08/02 12:13:43;;;;;;;6.13;2.20;;;;;;;;;;5101841;28;20047;-75
2022/08/02 12:21:40;;;;;;;6.80;2.30;;;;;;;;;;5096000;28;20055;-74
2022/08/02 12:24:06;;;;;;;8.07;2.30;;;;;;;;;;5096075;28;20033;-72
2022/08/02 12:26:41;;;;;;;6.72;2.25;;;;;;;;;;5096731;28;20073;-74
2022/08/02 12:29:07;;;;;;;10.85;2.22;;;;;;;;;;5096525;28;20056;-74
2022/08/02 12:31:40;;;;;;;4.15;2.08;;;;;;;;;;5077837;28;20113;-73
2022/08/02 12:34:15;;;;;;;6.15;2.08;;;;;;;;;;5077908;28;20052;-73
2022/08/02 12:36:41;;;;;;;6.15;2.00;;;;;;;;;;5105943;28;20465;-73
2022/08/02 12:39:11;;;;;;;6.95;1.85;;;;;;;;;;5116251;28;20397;-74
2022/08/02 12:41:37;;;;;;;5.82;1.98;;;;;;;;;;5097505;28;20126;-72
2022/08/02 12:44:03;;;;;;;5.18;1.60;;;;;;;;;;5101097;28;20160;-74
2022/08/02 12:46:30;;;;;;;4.95;1.35;;;;;;;;;;5115955;28;20043;-74
2022/08/02 12:48:56;;;;;;;9.45;1.75;;;;;;;;;;5113978;28;20078;-74
2022/08/02 12:51:29;;;;;;;3.83;1.38;;;;;;;;;;5096576;28;20040;-73
2022/08/02 12:54:10;;;;;;;3.40;1.40;;;;;;;;;;5112175;28;20135;-75
2022/08/02 12:56:39;;;;;;;4.18;1.50;;;;;;;;;;5105423;28;20122;-72
2022/08/02 12:59:05;;;;;;;4.82;1.63;;;;;;;;;;5108005;28;20036;-74
2022/08/02 13:01:32;;;;;;;5.72;1.73;;;;;;;;;;5114531;28;20405;-73
2022/08/02 13:03:58;;;;;;;4.95;1.80;;;;;;;;;;5115994;28;20073;-73
2022/08/02 13:06:25;;;;;;;4.47;1.80;;;;;;;;;;5107905;28;20032;-73
2022/08/02 13:08:53;;;;;;;4.55;1.60;;;;;;;;;;5110648;28;20105;-74
2022/08/02 13:11:19;;;;;;;5.10;2.00;;;;;;;;;;5097130;28;20148;-73
2022/08/02 13:13:45;;;;;;;4.57;1.80;;;;;;;;;;5114508;28;20039;-74
2022/08/02 13:16:11;;;;;;;4.88;1.90;;;;;;;;;;5112892;28;20074;-72
2022/08/02 13:18:38;;;;;;;5.13;2.00;;;;;;;;;;5112829;28;20044;-73
2022/08/02 13:21:05;;;;;;;6.15;2.50;;;;;;;;;;5093823;28;20048;-74
2022/08/02 13:23:31;;;;;;;6.43;2.55;;;;;;;;;;5094790;28;20119;-74
2022/08/02 13:25:58;;;;;;;6.55;2.88;;;;;;;;;;5097308;28;20055;-73
2022/08/02 13:28:24;;;;;;;6.68;2.20;;;;;;;;;;5112805;28;20036;-72
2022/08/02 13:30:50;;;;;;;8.13;2.50;;;;;;;;;;5098884;28;20523;-73
2022/08/02 13:33:16;;;;;;;5.60;2.13;;;;;;;;;;5103878;28;20118;-72
2022/08/02 13:35:43;;;;;;;6.45;2.40;;;;;;;;;;5093966;28;20044;-73
2022/08/02 13:38:09;;;;;;;4.55;2.17;;;;;;;;;;5094711;28;20052;-73
2022/08/02 13:41:07;;;;;;;5.75;2.10;;;;;;;;;;5094280;28;20543;-72
2022/08/02 13:43:24;;;;;;;6.35;2.22;;;;;;;;;;5095067;28;20570;-72
2022/08/02 13:45:50;;;;;;;5.90;2.25;;;;;;;;;;5095292;28;20051;-73
2022/08/02 13:48:16;;;;;;;7.15;2.42;;;;;;;;;;5099516;28;20054;-74
2022/08/02 13:50:42;;;;;;;5.13;2.08;;;;;;;;;;5110114;28;20047;-73
2022/08/02 13:53:08;;;;;;;5.97;2.10;;;;;;;;;;5100097;28;20059;-73
2022/08/02 13:55:35;;;;;;;4.70;2.00;;;;;;;;;;5097042;28;20063;-73
2022/08/02 13:58:03;;;;;;;5.95;2.00;;;;;;;;;;5100028;28;20490;-74
2022/08/02 14:00:30;;;;;;;6.35;1.95;;;;;;;;;;5113212;28;20048;-73
2022/08/02 14:02:56;;;;;;;3.75;1.60;;;;;;;;;;5076371;28;20408;-74
2022/08/02 14:05:28;;;;;;;5.18;2.50;;;;;;;;;;5105795;28;20056;-73
2022/08/02 14:07:54;;;;;;;5.38;2.25;;;;;;;;;;5101304;28;20507;-75
2022/08/02 14:10:20;;;;;;;3.80;1.90;;;;;;;;;;5111778;28;20044;-73
2022/08/02 14:12:46;;;;;;;4.35;1.88;;;;;;;;;;5096558;28;20048;-74
2022/08/02 14:15:13;;;;;;;6.68;2.00;;;;;;;;;;5102447;28;20113;-73
2022/08/02 14:17:39;;;;;;;5.55;2.05;;;;;;;;;;5101518;28;20080;-73
2022/08/02 14:20:05;;;;;;;5.40;2.20;;;;;;;;;;5114441;28;20048;-74
2022/08/02 14:22:31;;;;;;;4.45;2.05;;;;;;;;;;5110037;28;20493;-74
2022/08/02 14:24:57;;;;;;;6.93;2.17;;;;;;;;;;5105275;28;20052;-74
2022/08/02 14:27:23;;;;;;;4.22;1.92;;;;;;;;;;5106904;28;20040;-73
2022/08/02 14:29:50;;;;;;;7.28;2.22;;;;;;;;;;5093935;28;20127;-73
2022/08/02 14:32:16;;;;;;;6.13;2.40;;;;;;;;;;5093990;28;20394;-73
2022/08/02 14:34:43;;;;;;;5.68;2.30;;;;;;;;;;5093006;28;20414;-72
2022/08/02 14:37:09;;;;;;;6.20;2.30;;;;;;;;;;5083548;28;20535;-73
2022/08/02 14:39:36;;;;;;;4.93;2.20;;;;;;;;;;5095009;28;20044;-73
2022/08/02 14:42:02;;;;;;;5.18;2.17;;;;;;;;;;5093258;28;20505;-73
2022/08/02 14:44:30;;;;;;;7.40;2.47;;;;;;;;;;5098846;28;20514;-73
2022/08/02 14:46:57;;;;;;;5.80;2.30;;;;;;;;;;5074888;28;20400;-74